Time;durP1;ratioP1;P1;durP2;ratioP2;P2;SDS_P1;SDS_P2;PMS_P1;PMS_P2;Temp;Humidity;BMP_temperature;BMP_pressure;BME280_temperature;BME280_humidity;BME280_pressure;Samples;Min_cycle;Max_cycle;Signal;HPM_P1;HPM_P2
2022/09/20 00:01:10;;;;;;;122.53;76.60;;;25.00;99.90;;;;;;5072275;28;20032;-67
2022/09/20 00:03:42;;;;;;;114.22;71.57;;;25.00;99.90;;;;;;5074204;28;20070;-69
2022/09/20 00:06:11;;;;;;;119.85;70.90;;;25.00;99.90;;;;;;5073583;28;20020;-67
2022/09/20 00:08:38;;;;;;;125.07;71.93;;;25.00;99.90;;;;;;5074037;28;20087;-66
2022/09/20 00:11:07;;;;;;;117.28;71.70;;;25.10;99.90;;;;;;5071743;28;20443;-67
2022/09/20 00:13:34;;;;;;;124.75;78.65;;;25.10;99.90;;;;;;5072069;28;20080;-67
2022/09/20 00:16:05;;;;;;;109.93;71.97;;;25.20;99.90;;;;;;5074071;28;20081;-67
2022/09/20 00:18:32;;;;;;;119.22;71.78;;;25.20;99.90;;;;;;5073911;28;20414;-67
2022/09/20 00:20:58;;;;;;;113.90;69.55;;;25.20;99.90;;;;;;5072752;28;20032;-67
2022/09/20 00:23:25;;;;;;;113.15;69.70;;;25.20;99.90;;;;;;5054042;28;20463;-67
2022/09/20 00:25:55;;;;;;;111.50;70.68;;;25.20;99.90;;;;;;5054216;28;20455;-67
2022/09/20 00:28:22;;;;;;;111.80;71.43;;;25.20;99.90;;;;;;5054134;28;20391;-68
2022/09/20 00:30:50;;;;;;;138.80;89.60;;;25.30;99.90;;;;;;5073657;28;20032;-69
2022/09/20 00:33:16;;;;;;;129.50;81.90;;;25.40;99.90;;;;;;5074155;28;20029;-68
2022/09/20 00:35:44;;;;;;;120.00;74.88;;;25.50;99.90;;;;;;5074054;28;20029;-69
2022/09/20 00:38:12;;;;;;;107.90;70.28;;;25.70;99.90;;;;;;5073661;28;20074;-68
2022/09/20 00:40:46;;;;;;;109.80;72.22;;;25.80;99.90;;;;;;5073297;28;20512;-69
2022/09/20 00:43:17;;;;;;;105.50;69.85;;;25.80;99.90;;;;;;5073353;28;20443;-69
2022/09/20 00:45:48;;;;;;;115.40;74.03;;;25.80;99.90;;;;;;5071024;28;20017;-68
2022/09/20 00:48:27;;;;;;;121.50;74.60;;;25.80;99.90;;;;;;5071373;28;20016;-68
2022/09/20 00:51:02;;;;;;;113.05;72.63;;;25.90;99.90;;;;;;5072944;28;20026;-67
2022/09/20 00:53:33;;;;;;;102.72;69.93;;;25.90;99.90;;;;;;5071729;28;20050;-67
2022/09/20 00:56:08;;;;;;;104.55;69.90;;;26.00;99.90;;;;;;5073192;28;20021;-69
2022/09/20 00:58:40;;;;;;;106.65;73.47;;;26.10;99.90;;;;;;5072018;28;20495;-67
2022/09/20 01:01:07;;;;;;;112.80;73.30;;;26.10;99.90;;;;;;5070775;28;20029;-65
2022/09/20 01:03:35;;;;;;;107.95;72.38;;;26.10;99.90;;;;;;5072791;28;20008;-68
2022/09/20 01:06:06;;;;;;;104.80;73.40;;;26.10;99.90;;;;;;5072737;28;20104;-66
2022/09/20 01:08:34;;;;;;;105.47;74.60;;;26.20;99.90;;;;;;5070719;28;20103;-68
2022/09/20 01:11:01;;;;;;;113.75;72.70;;;26.30;99.90;;;;;;5072908;28;20363;-69
2022/09/20 01:13:28;;;;;;;110.95;77.15;;;26.40;99.90;;;;;;5072446;28;20104;-69
2022/09/20 01:15:59;;;;;;;111.10;77.07;;;26.50;99.90;;;;;;5072819;28;20408;-68
2022/09/20 01:18:27;;;;;;;110.30;75.10;;;26.50;99.90;;;;;;5072667;28;20025;-67
2022/09/20 01:20:54;;;;;;;114.15;75.78;;;26.60;99.90;;;;;;5070863;28;20035;-66
2022/09/20 01:23:26;;;;;;;106.65;74.20;;;26.60;99.90;;;;;;5072834;28;20379;-67
2022/09/20 01:25:55;;;;;;;111.47;76.00;;;26.60;99.90;;;;;;5070772;28;20091;-67
2022/09/20 01:28:22;;;;;;;110.40;74.50;;;26.70;99.90;;;;;;5072720;28;20427;-66
2022/09/20 01:30:51;;;;;;;106.72;73.95;;;26.80;99.90;;;;;;5072868;28;20031;-66
2022/09/20 01:33:27;;;;;;;113.15;79.60;;;26.80;99.90;;;;;;5072818;28;20422;-67
2022/09/20 01:35:57;;;;;;;109.85;76.60;;;27.00;99.90;;;;;;5070848;28;20024;-67
2022/09/20 01:38:27;;;;;;;113.30;77.22;;;27.00;99.90;;;;;;5073254;28;20028;-67
2022/09/20 01:41:09;;;;;;;112.70;76.97;;;27.00;99.90;;;;;;5070451;28;20432;-65
2022/09/20 01:43:43;;;;;;;100.57;69.00;;;27.00;99.90;;;;;;5069983;28;20012;-66
2022/09/20 01:46:17;;;;;;;102.90;68.68;;;27.20;99.90;;;;;;5072631;28;20021;-65
2022/09/20 01:48:43;;;;;;;96.40;66.72;;;27.20;99.90;;;;;;5070388;28;20486;-68
2022/09/20 01:51:15;;;;;;;81.68;58.92;;;27.20;99.90;;;;;;5071493;28;20020;-66
2022/09/20 01:53:55;;;;;;;90.28;62.42;;;27.40;99.90;;;;;;5070243;28;20495;-67
2022/09/20 01:56:35;;;;;;;81.40;57.67;;;27.50;99.90;;;;;;5060882;28;20032;-65
2022/09/20 01:59:18;;;;;;;79.63;58.85;;;27.70;99.90;;;;;;5071041;28;20044;-67
2022/09/20 02:01:49;;;;;;;67.30;52.47;;;27.80;99.90;;;;;;5071758;28;20186;-67
2022/09/20 02:04:19;;;;;;;79.43;59.70;;;27.90;99.90;;;;;;5072515;28;20020;-67
2022/09/20 02:06:48;;;;;;;72.38;53.92;;;28.00;99.90;;;;;;5072379;28;20466;-67
2022/09/20 02:09:19;;;;;;;67.75;53.40;;;28.10;99.90;;;;;;5073782;28;20029;-67
2022/09/20 02:11:51;;;;;;;60.05;49.45;;;28.20;99.90;;;;;;5076655;28;20020;-67
2022/09/20 02:14:22;;;;;;;68.28;52.40;;;28.30;99.90;;;;;;5076430;28;20017;-67
2022/09/20 02:17:05;;;;;;;62.45;47.05;;;28.30;99.90;;;;;;5076524;28;20027;-67
2022/09/20 02:19:43;;;;;;;57.65;47.30;;;28.30;99.90;;;;;;5076696;28;20041;-67
2022/09/20 02:22:15;;;;;;;58.47;46.40;;;28.40;99.90;;;;;;5076517;28;20025;-67
2022/09/20 02:24:51;;;;;;;56.55;44.72;;;28.40;99.90;;;;;;5076409;28;20451;-67
2022/09/20 02:27:25;;;;;;;59.17;47.08;;;28.40;99.90;;;;;;5076505;28;20024;-67
2022/09/20 02:29:57;;;;;;;61.22;47.85;;;28.40;99.90;;;;;;5069815;28;20037;-67
2022/09/20 02:32:28;;;;;;;55.97;46.10;;;28.50;99.90;;;;;;5061646;28;20025;-67
2022/09/20 02:34:58;;;;;;;56.55;46.60;;;28.40;99.90;;;;;;5056331;28;20040;-67
2022/09/20 02:37:27;;;;;;;55.45;45.88;;;28.40;99.90;;;;;;5056242;28;20067;-67
2022/09/20 02:40:16;;;;;;;60.72;47.70;;;28.40;99.90;;;;;;5056159;28;20033;-68
2022/09/20 02:42:46;;;;;;;56.85;46.88;;;28.50;99.90;;;;;;5056055;28;20032;-67
2022/09/20 02:45:22;;;;;;;79.30;60.92;;;28.60;99.90;;;;;;5056178;28;20025;-68
2022/09/20 02:47:51;;;;;;;63.13;50.60;;;28.70;99.90;;;;;;5056196;28;20032;-67
2022/09/20 02:50:25;;;;;;;55.80;44.97;;;28.70;99.90;;;;;;5056116;28;20024;-66
2022/09/20 02:52:56;;;;;;;58.58;45.60;;;28.70;99.90;;;;;;5055923;28;20032;-66
2022/09/20 02:55:28;;;;;;;59.10;43.30;;;28.80;99.90;;;;;;5056170;28;20112;-68
2022/09/20 02:57:58;;;;;;;57.63;44.40;;;28.80;99.90;;;;;;5055367;28;20124;-67
2022/09/20 03:00:47;;;;;;;47.58;38.70;;;28.70;99.90;;;;;;5055654;28;20511;-67
2022/09/20 03:03:32;;;;;;;49.55;41.15;;;28.70;99.90;;;;;;5055268;28;20100;-68
2022/09/20 03:06:05;;;;;;;49.55;41.13;;;28.80;99.90;;;;;;5074370;28;20016;-69
2022/09/20 03:08:37;;;;;;;53.30;40.55;;;28.80;99.90;;;;;;5074789;28;20051;-67
2022/09/20 03:11:09;;;;;;;50.47;40.25;;;28.80;99.90;;;;;;5072706;28;20075;-69
2022/09/20 03:13:38;;;;;;;46.42;36.90;;;29.00;99.90;;;;;;5075461;28;20031;-67
2022/09/20 03:16:07;;;;;;;52.17;39.75;;;29.10;99.90;;;;;;5074880;28;20497;-67
2022/09/20 03:18:41;;;;;;;54.30;39.13;;;29.20;99.90;;;;;;5074569;28;20139;-66
2022/09/20 03:21:22;;;;;;;51.58;39.95;;;29.20;99.90;;;;;;5071507;28;20360;-68
2022/09/20 03:23:51;;;;;;;46.30;39.40;;;29.20;99.90;;;;;;5072397;28;20021;-67
2022/09/20 03:26:20;;;;;;;47.72;39.47;;;29.40;99.90;;;;;;5074207;28;20013;-68
2022/09/20 03:28:49;;;;;;;43.85;38.90;;;29.50;99.90;;;;;;5072807;28;20025;-66
2022/09/20 03:31:24;;;;;;;48.13;38.53;;;29.50;99.90;;;;;;5074467;28;20045;-68
2022/09/20 03:34:08;;;;;;;68.25;52.95;;;29.40;99.90;;;;;;5074426;28;20078;-68
2022/09/20 03:36:39;;;;;;;48.40;36.55;;;29.40;99.90;;;;;;5073549;28;20022;-67
2022/09/20 03:39:11;;;;;;;51.33;39.55;;;29.60;99.90;;;;;;5074106;28;20024;-68
2022/09/20 03:41:47;;;;;;;49.85;40.25;;;29.70;99.90;;;;;;5071240;28;20032;-67
2022/09/20 03:44:19;;;;;;;38.63;33.33;;;29.70;99.90;;;;;;5073602;28;20254;-68
2022/09/20 03:46:50;;;;;;;44.67;35.70;;;29.90;99.90;;;;;;5073937;28;20012;-68
2022/09/20 03:49:20;;;;;;;43.90;34.10;;;29.90;99.90;;;;;;5073802;28;20074;-67
2022/09/20 03:51:50;;;;;;;48.35;37.22;;;29.90;99.90;;;;;;5073819;28;20013;-68
2022/09/20 03:54:22;;;;;;;45.10;36.80;;;29.90;99.90;;;;;;5073992;28;20099;-68
2022/09/20 03:56:51;;;;;;;37.00;33.00;;;30.00;99.90;;;;;;5073871;28;20063;-67
2022/09/20 03:59:20;;;;;;;40.60;31.52;;;30.10;99.90;;;;;;5072968;28;20040;-66
2022/09/20 04:01:51;;;;;;;37.55;30.63;;;30.00;99.90;;;;;;5072604;28;20500;-68
2022/09/20 04:04:21;;;;;;;37.67;30.50;;;30.00;99.90;;;;;;5071852;28;20028;-68
2022/09/20 04:07:10;;;;;;;37.08;29.55;;;30.10;99.90;;;;;;5070897;28;20020;-68
2022/09/20 04:09:40;;;;;;;48.33;35.20;;;30.00;99.90;;;;;;5070608;28;20078;-68
2022/09/20 04:12:12;;;;;;;42.90;35.50;;;30.00;99.90;;;;;;5072448;28;20276;-69
2022/09/20 04:14:46;;;;;;;39.78;32.53;;;30.00;99.90;;;;;;5072187;28;20028;-70
2022/09/20 04:17:18;;;;;;;40.83;32.90;;;30.10;99.90;;;;;;5072160;28;20061;-72
2022/09/20 04:20:08;;;;;;;43.90;34.42;;;30.20;99.90;;;;;;5071233;28;20516;-72
2022/09/20 04:22:35;;;;;;;44.63;36.83;;;30.40;99.90;;;;;;5044322;28;20044;-71
2022/09/20 04:25:13;;;;;;;43.60;34.25;;;30.60;99.90;;;;;;5072328;28;20036;-70
2022/09/20 04:27:56;;;;;;;43.17;34.63;;;30.60;99.90;;;;;;5071190;28;20024;-68
2022/09/20 04:30:36;;;;;;;44.33;35.80;;;30.70;99.90;;;;;;5072723;28;20099;-69
2022/09/20 04:33:15;;;;;;;40.92;35.03;;;30.50;99.90;;;;;;5073067;28;20356;-68
2022/09/20 04:38:22;;;;;;;38.92;32.53;;;30.70;99.90;;;;;;5073101;28;20185;-69
2022/09/20 04:40:54;;;;;;;41.97;35.42;;;30.70;99.90;;;;;;5072758;28;20083;-67
2022/09/20 04:43:23;;;;;;;45.17;35.97;;;30.60;99.90;;;;;;5071964;28;20043;-67
2022/09/20 04:46:03;;;;;;;43.75;32.97;;;30.50;99.90;;;;;;5068292;28;20952;-65
2022/09/20 04:48:34;;;;;;;37.88;32.60;;;30.80;99.90;;;;;;5071749;28;20036;-67
2022/09/20 04:51:00;;;;;;;40.35;33.40;;;30.80;99.90;;;;;;5069238;28;20084;-65
2022/09/20 04:53:41;;;;;;;41.40;32.03;;;30.80;99.90;;;;;;5072387;28;20028;-65
2022/09/20 04:56:21;;;;;;;35.13;30.88;;;30.80;99.90;;;;;;5070743;28;20936;-66
2022/09/20 04:58:52;;;;;;;34.85;30.15;;;30.80;99.90;;;;;;5070999;28;20406;-67
2022/09/20 05:01:31;;;;;;;34.23;30.03;;;30.80;99.90;;;;;;5069994;28;20033;-68
2022/09/20 05:04:00;;;;;;;40.17;29.25;;;30.80;99.90;;;;;;5070074;28;20095;-71
2022/09/20 05:06:33;;;;;;;36.70;28.98;;;30.70;99.90;;;;;;5072603;28;20020;-71
2022/09/20 05:09:04;;;;;;;33.88;27.73;;;30.90;99.90;;;;;;5070222;28;20029;-70
2022/09/20 05:11:36;;;;;;;34.42;28.02;;;31.00;99.90;;;;;;5070481;28;20049;-70
2022/09/20 05:14:05;;;;;;;33.72;28.88;;;31.20;99.90;;;;;;5072172;28;20485;-70
2022/09/20 05:16:37;;;;;;;32.80;27.67;;;31.20;99.90;;;;;;5072318;28;20047;-73
2022/09/20 05:19:04;;;;;;;36.17;28.55;;;31.20;99.90;;;;;;5072628;28;20099;-72
2022/09/20 05:21:36;;;;;;;32.45;28.73;;;31.20;99.90;;;;;;5072714;28;20353;-69
2022/09/20 05:24:06;;;;;;;36.63;27.25;;;31.30;99.90;;;;;;5073302;28;20111;-70
2022/09/20 05:26:44;;;;;;;30.17;26.95;;;31.40;99.90;;;;;;5073344;28;20038;-72
2022/09/20 05:29:28;;;;;;;29.35;21.92;;;31.50;99.90;;;;;;5073268;28;20017;-68
2022/09/20 05:32:00;;;;;;;30.15;22.35;;;31.50;99.90;;;;;;5073236;28;20016;-71
2022/09/20 05:34:38;;;;;;;25.48;22.02;;;31.50;99.90;;;;;;5073201;28;20031;-71
2022/09/20 05:37:30;;;;;;;31.75;24.85;;;31.50;99.90;;;;;;5072870;28;20032;-71
2022/09/20 05:39:59;;;;;;;31.20;23.95;;;31.30;99.90;;;;;;5011563;28;20470;-70
2022/09/20 05:42:53;;;;;;;28.60;22.75;;;31.30;99.90;;;;;;5053148;28;20046;-71
2022/09/20 05:45:23;;;;;;;24.27;20.30;;;31.30;99.90;;;;;;5074647;28;20063;-72
2022/09/20 05:48:10;;;;;;;28.92;22.23;;;31.50;99.90;;;;;;5077045;28;20033;-71
2022/09/20 05:50:41;;;;;;;24.05;19.45;;;31.70;99.90;;;;;;5058878;28;20029;-70
2022/09/20 05:53:29;;;;;;;22.30;17.88;;;31.70;99.90;;;;;;5057274;28;20044;-70
2022/09/20 05:55:56;;;;;;;21.95;17.38;;;31.80;99.90;;;;;;5047449;28;20098;-70
2022/09/20 05:58:33;;;;;;;22.92;16.77;;;31.80;99.90;;;;;;5056611;28;20478;-72
2022/09/20 06:01:09;;;;;;;20.95;16.70;;;31.90;99.90;;;;;;5057071;28;20424;-69
2022/09/20 06:03:41;;;;;;;21.35;16.20;;;32.10;99.90;;;;;;5056816;28;20103;-70
2022/09/20 06:06:25;;;;;;;23.58;15.55;;;32.00;99.90;;;;;;5057072;28;20028;-69
2022/09/20 06:08:56;;;;;;;24.02;16.08;;;32.00;99.90;;;;;;5056662;28;20040;-69
2022/09/20 06:11:28;;;;;;;17.85;15.32;;;32.00;99.90;;;;;;5056845;28;20028;-69
2022/09/20 06:14:02;;;;;;;22.55;15.48;;;32.10;99.70;;;;;;5056470;28;20032;-69
2022/09/20 06:16:40;;;;;;;23.90;17.27;;;32.10;99.70;;;;;;5068745;28;20487;-69
2022/09/20 06:19:18;;;;;;;20.23;16.55;;;32.10;99.90;;;;;;5076589;28;20020;-69
2022/09/20 06:21:49;;;;;;;21.50;16.45;;;32.00;99.60;;;;;;5076327;28;20021;-70
2022/09/20 06:24:25;;;;;;;25.02;17.23;;;32.10;98.20;;;;;;5076544;28;20024;-70
2022/09/20 06:26:56;;;;;;;22.77;16.98;;;32.30;98.70;;;;;;5076461;28;20433;-70
2022/09/20 06:29:32;;;;;;;21.88;16.80;;;32.40;97.40;;;;;;5076323;28;20013;-70
2022/09/20 06:31:58;;;;;;;24.55;18.95;;;32.40;97.60;;;;;;5076244;28;20020;-72
2022/09/20 06:34:27;;;;;;;38.22;23.17;;;32.40;97.60;;;;;;5076454;28;20095;-69
2022/09/20 06:42:25;;;;;;;28.08;19.73;;;32.40;97.70;;;;;;5076100;28;20031;-70
2022/09/20 06:44:52;;;;;;;28.70;18.15;;;32.50;96.50;;;;;;5076214;28;20099;-69
2022/09/20 06:47:18;;;;;;;20.60;16.35;;;32.50;94.60;;;;;;5075927;28;20474;-69
2022/09/20 06:49:45;;;;;;;23.08;18.05;;;32.30;95.30;;;;;;5075996;28;20031;-70
2022/09/20 06:52:15;;;;;;;43.85;29.45;;;32.30;95.40;;;;;;5076054;28;20111;-69
2022/09/20 06:54:47;;;;;;;85.05;50.17;;;32.30;96.20;;;;;;5075809;28;20024;-69
2022/09/20 06:57:20;;;;;;;31.42;25.48;;;32.40;97.10;;;;;;5074929;28;20046;-68
2022/09/20 06:59:47;;;;;;;37.10;27.75;;;32.40;95.40;;;;;;5075578;28;20546;-69
2022/09/20 07:02:13;;;;;;;34.13;23.73;;;32.50;96.40;;;;;;5075899;28;20025;-68
2022/09/20 07:04:40;;;;;;;30.77;23.27;;;32.50;96.80;;;;;;5075576;28;20028;-70
2022/09/20 07:07:14;;;;;;;39.70;26.73;;;32.40;96.80;;;;;;5075808;28;20017;-68
2022/09/20 07:09:40;;;;;;;41.45;29.70;;;32.30;97.90;;;;;;5075632;28;20067;-70
2022/09/20 07:12:09;;;;;;;45.65;29.83;;;32.30;97.40;;;;;;5075741;28;20471;-69
2022/09/20 07:14:36;;;;;;;35.60;25.50;;;32.20;98.40;;;;;;5075349;28;20033;-68
2022/09/20 07:17:03;;;;;;;38.15;25.73;;;32.10;97.80;;;;;;5075532;28;20032;-69
2022/09/20 07:19:29;;;;;;;34.08;25.67;;;32.00;97.10;;;;;;5075393;28;20064;-68
2022/09/20 07:21:56;;;;;;;41.88;28.83;;;31.90;97.80;;;;;;5075383;28;20029;-70
2022/09/20 07:24:23;;;;;;;27.77;19.75;;;31.90;97.90;;;;;;5075797;28;20362;-69
2022/09/20 07:26:54;;;;;;;42.60;30.42;;;31.90;96.40;;;;;;5075508;28;20025;-68
2022/09/20 07:29:21;;;;;;;41.70;27.20;;;31.90;97.10;;;;;;5075280;28;20035;-69
2022/09/20 07:31:49;;;;;;;39.15;27.30;;;31.80;96.90;;;;;;5075099;28;20032;-69
2022/09/20 07:34:19;;;;;;;49.55;32.22;;;31.70;98.00;;;;;;5075422;28;20025;-69
2022/09/20 07:36:46;;;;;;;49.95;29.02;;;31.70;97.00;;;;;;5075242;28;20028;-69
2022/09/20 07:39:13;;;;;;;26.42;19.65;;;31.70;97.90;;;;;;5075027;28;20024;-69
2022/09/20 07:41:39;;;;;;;29.13;21.08;;;31.70;97.90;;;;;;5075063;28;20509;-69
2022/09/20 07:46:37;;;;;;;44.08;24.23;;;31.70;98.40;;;;;;5074966;28;20021;-69
2022/09/20 07:49:06;;;;;;;36.47;22.25;;;31.70;98.60;;;;;;5075098;28;20113;-69
2022/09/20 07:51:32;;;;;;;38.75;21.48;;;31.70;99.00;;;;;;5074892;28;20036;-71
2022/09/20 07:53:59;;;;;;;35.05;23.42;;;31.70;98.20;;;;;;5074839;28;20024;-70
2022/09/20 07:56:25;;;;;;;39.40;28.38;;;31.70;98.30;;;;;;5073627;28;20044;-70
2022/09/20 07:58:52;;;;;;;32.83;21.92;;;31.70;98.10;;;;;;5073117;28;20409;-70
2022/09/20 08:01:20;;;;;;;31.02;21.80;;;31.70;97.90;;;;;;5073450;28;20019;-69
2022/09/20 08:03:47;;;;;;;32.90;24.10;;;31.60;98.20;;;;;;5073819;28;20021;-69
2022/09/20 08:06:17;;;;;;;30.27;21.17;;;31.60;99.10;;;;;;5071918;28;20522;-71
2022/09/20 08:08:44;;;;;;;26.50;16.73;;;31.60;99.30;;;;;;5073295;28;20027;-69
2022/09/20 08:11:15;;;;;;;23.70;17.42;;;31.50;98.80;;;;;;5070956;28;20387;-71
2022/09/20 08:13:43;;;;;;;33.70;18.05;;;31.50;99.20;;;;;;5072891;28;20024;-70
2022/09/20 08:16:12;;;;;;;25.02;18.30;;;31.50;99.30;;;;;;5073480;28;20024;-70
2022/09/20 08:18:47;;;;;;;28.63;21.45;;;31.40;99.90;;;;;;5073609;28;20487;-70
2022/09/20 08:21:15;;;;;;;30.92;22.02;;;31.40;99.90;;;;;;5069398;28;20028;-68
2022/09/20 08:23:44;;;;;;;37.83;26.02;;;31.40;99.90;;;;;;5074043;28;20016;-68
2022/09/20 08:26:13;;;;;;;35.90;24.80;;;31.40;99.90;;;;;;5073550;28;20485;-68
2022/09/20 08:28:41;;;;;;;34.63;25.27;;;31.30;99.90;;;;;;5073118;28;20089;-69
2022/09/20 08:31:10;;;;;;;40.20;24.88;;;31.40;99.90;;;;;;5073255;28;20032;-69
2022/09/20 08:33:37;;;;;;;41.97;31.73;;;31.30;99.90;;;;;;5070869;28;20107;-68
2022/09/20 08:36:08;;;;;;;56.65;38.83;;;31.20;99.90;;;;;;5070922;28;20028;-69
2022/09/20 08:38:35;;;;;;;42.93;31.83;;;31.10;99.90;;;;;;5073153;28;20056;-69
2022/09/20 08:41:25;;;;;;;36.67;28.75;;;31.10;99.90;;;;;;5073079;28;20025;-70
2022/09/20 08:43:57;;;;;;;38.05;24.65;;;31.10;99.60;;;;;;5071912;28;20017;-70
2022/09/20 08:46:28;;;;;;;;;;;31.20;99.90;;;;;;5073689;28;20052;-68
2022/09/20 08:48:56;;;;;;;32.60;23.60;;;31.20;99.90;;;;;;5073139;28;19908;-69
2022/09/20 08:51:29;;;;;;;38.83;27.00;;;31.20;99.90;;;;;;5073310;28;20016;-67
2022/09/20 08:53:58;;;;;;;33.80;25.55;;;31.20;99.90;;;;;;5071619;28;20078;-70
2022/09/20 08:56:28;;;;;;;39.53;27.85;;;31.20;99.90;;;;;;5073121;28;20021;-69
2022/09/20 08:58:59;;;;;;;45.13;28.80;;;31.10;99.90;;;;;;5070192;28;20044;-68
2022/09/20 09:01:28;;;;;;;40.35;25.40;;;31.20;99.90;;;;;;5072687;28;20025;-68
2022/09/20 09:04:01;;;;;;;33.13;23.15;;;31.10;99.90;;;;;;5070392;28;20036;-68
2022/09/20 09:06:27;;;;;;;35.42;24.05;;;31.00;99.90;;;;;;5071567;28;20563;-68
2022/09/20 09:08:58;;;;;;;33.33;24.13;;;31.00;99.90;;;;;;5072634;28;20029;-71
2022/09/20 09:11:25;;;;;;;35.45;23.58;;;30.90;99.90;;;;;;5072150;28;20025;-69
2022/09/20 09:14:00;;;;;;;36.53;22.60;;;30.90;99.90;;;;;;5072164;28;20092;-69
2022/09/20 09:16:30;;;;;;;33.90;21.10;;;31.00;99.90;;;;;;5069358;28;20052;-68
2022/09/20 09:18:56;;;;;;;34.10;22.20;;;30.90;99.90;;;;;;5071609;28;20017;-70
2022/09/20 09:21:28;;;;;;;30.80;22.20;;;30.80;99.90;;;;;;5073191;28;20021;-70
2022/09/20 09:24:04;;;;;;;30.48;23.92;;;30.70;99.90;;;;;;5073041;28;20462;-70
2022/09/20 09:26:36;;;;;;;37.05;23.10;;;30.70;99.90;;;;;;5069603;28;20033;-70
2022/09/20 09:29:08;;;;;;;28.65;19.75;;;30.70;99.90;;;;;;5073116;28;20013;-70
2022/09/20 09:31:36;;;;;;;34.75;19.55;;;30.70;99.90;;;;;;5073254;28;20032;-70
2022/09/20 09:34:02;;;;;;;30.45;19.58;;;30.70;99.90;;;;;;5070834;28;20036;-70
2022/09/20 09:36:29;;;;;;;28.95;19.23;;;30.50;99.90;;;;;;5073287;28;20461;-71
2022/09/20 09:39:22;;;;;;;31.70;21.25;;;30.40;99.90;;;;;;5073065;28;20035;-71
2022/09/20 09:41:49;;;;;;;30.52;20.73;;;30.40;99.90;;;;;;5072415;28;20088;-70
2022/09/20 09:44:19;;;;;;;29.27;23.40;;;30.40;99.90;;;;;;5072969;28;20390;-71
2022/09/20 09:46:45;;;;;;;37.38;23.77;;;30.30;99.90;;;;;;5069948;28;20028;-66
2022/09/20 09:49:15;;;;;;;39.97;25.65;;;30.30;99.90;;;;;;5072509;28;20531;-65
2022/09/20 09:52:01;;;;;;;37.17;22.83;;;30.30;99.90;;;;;;5072791;28;20028;-65
2022/09/20 09:54:31;;;;;;;31.25;23.02;;;30.30;99.90;;;;;;5072708;28;20020;-66
2022/09/20 09:57:10;;;;;;;38.00;27.30;;;30.30;99.90;;;;;;5072529;28;20039;-66
2022/09/20 09:59:39;;;;;;;36.13;24.13;;;30.30;99.90;;;;;;5070507;28;20048;-66
2022/09/20 10:02:11;;;;;;;52.13;29.83;;;30.20;99.90;;;;;;5072404;28;20021;-66
2022/09/20 10:05:00;;;;;;;62.80;39.00;;;30.20;99.90;;;;;;5072259;28;20206;-66
2022/09/20 10:07:28;;;;;;;86.68;56.15;;;30.10;99.90;;;;;;5054872;28;20506;-66
2022/09/20 10:09:59;;;;;;;52.13;31.85;;;30.10;99.90;;;;;;5072589;28;20064;-66
2022/09/20 10:12:31;;;;;;;47.38;29.98;;;30.10;99.90;;;;;;5067364;28;20021;-66
2022/09/20 10:15:10;;;;;;;45.33;29.15;;;30.00;99.90;;;;;;5072072;28;20082;-65
2022/09/20 10:17:38;;;;;;;48.05;29.88;;;30.00;99.90;;;;;;5071117;28;20078;-65
2022/09/20 10:20:27;;;;;;;45.75;29.25;;;29.90;99.90;;;;;;5072130;28;20027;-64
2022/09/20 10:23:01;;;;;;;44.17;30.33;;;29.90;99.90;;;;;;5067790;28;20037;-65
2022/09/20 10:25:32;;;;;;;42.45;29.05;;;30.00;99.90;;;;;;5072448;28;20036;-65
2022/09/20 10:28:03;;;;;;;44.92;29.90;;;30.00;99.90;;;;;;5072907;28;20028;-64
2022/09/20 10:30:40;;;;;;;56.20;35.08;;;29.90;99.90;;;;;;5074242;28;20063;-63
2022/09/20 10:33:12;;;;;;;46.42;32.67;;;29.80;99.90;;;;;;5076452;28;20032;-65
2022/09/20 10:35:44;;;;;;;45.38;31.15;;;29.70;99.90;;;;;;5068340;28;20199;-65
2022/09/20 10:38:12;;;;;;;45.92;31.80;;;29.70;99.90;;;;;;5056061;28;20052;-65
2022/09/20 10:43:24;;;;;;;73.07;50.33;;;29.70;99.90;;;;;;5056125;28;20029;-65
2022/09/20 10:46:02;;;;;;;117.18;81.78;;;29.60;99.90;;;;;;5061519;28;20467;-65
2022/09/20 10:48:37;;;;;;;86.85;54.85;;;29.60;99.90;;;;;;5071229;28;20036;-65
2022/09/20 10:51:16;;;;;;;84.55;51.63;;;29.60;99.90;;;;;;5076213;28;20029;-69
2022/09/20 10:53:50;;;;;;;71.25;48.38;;;29.50;99.90;;;;;;5076316;28;20025;-65
2022/09/20 10:56:20;;;;;;;91.25;55.95;;;29.40;99.90;;;;;;5075949;28;20471;-66
2022/09/20 10:58:54;;;;;;;97.45;58.70;;;29.40;99.90;;;;;;5075418;28;20059;-66
2022/09/20 11:01:30;;;;;;;34.85;24.48;;;29.30;99.90;;;;;;5075649;28;20032;-64
2022/09/20 11:03:59;;;;;;;34.75;23.10;;;29.30;99.90;;;;;;5075497;28;20024;-65
2022/09/20 11:06:27;;;;;;;32.92;23.70;;;29.20;99.90;;;;;;5075801;28;20090;-66
2022/09/20 11:08:58;;;;;;;48.70;24.75;;;29.10;99.90;;;;;;5075815;28;20028;-65
2022/09/20 11:11:31;;;;;;;36.05;24.35;;;29.10;99.90;;;;;;5075820;28;20066;-65
2022/09/20 11:14:04;;;;;;;45.83;30.05;;;29.10;99.90;;;;;;5075452;28;20439;-66
2022/09/20 11:16:53;;;;;;;48.22;30.30;;;29.20;99.90;;;;;;5075570;28;20029;-66
2022/09/20 11:19:26;;;;;;;44.05;29.00;;;29.10;99.90;;;;;;5070965;28;20063;-65
2022/09/20 11:22:16;;;;;;;49.60;31.80;;;29.00;99.90;;;;;;5064108;28;20032;-65
2022/09/20 11:25:05;;;;;;;55.97;30.92;;;29.00;99.90;;;;;;5055301;28;20031;-65
2022/09/20 11:27:41;;;;;;;43.42;27.90;;;29.00;99.90;;;;;;5053035;28;20040;-65
2022/09/20 11:30:12;;;;;;;50.88;26.75;;;29.00;99.90;;;;;;5055631;28;20025;-66
2022/09/20 11:32:45;;;;;;;47.13;25.50;;;29.00;99.90;;;;;;5055383;28;20103;-70
2022/09/20 11:35:13;;;;;;;46.72;30.23;;;29.00;99.90;;;;;;5055277;28;20066;-70
2022/09/20 11:37:49;;;;;;;41.03;26.33;;;28.90;99.90;;;;;;5055220;28;20425;-70
2022/09/20 11:40:19;;;;;;;45.33;27.00;;;28.90;99.90;;;;;;5055131;28;20391;-70
2022/09/20 11:42:46;;;;;;;43.35;26.13;;;28.90;99.90;;;;;;5060669;28;20095;-67
2022/09/20 11:45:13;;;;;;;49.70;29.65;;;28.90;99.90;;;;;;5075259;28;20051;-68
2022/09/20 11:47:47;;;;;;;46.05;28.98;;;28.90;99.90;;;;;;5074496;28;20116;-65
2022/09/20 11:50:18;;;;;;;41.63;26.52;;;29.00;99.90;;;;;;5074104;28;20016;-65
2022/09/20 11:52:51;;;;;;;40.10;26.08;;;29.00;99.90;;;;;;5074122;28;20085;-65
2022/09/20 11:55:41;;;;;;;53.70;30.80;;;28.90;99.90;;;;;;5071692;28;20036;-65
2022/09/20 11:58:12;;;;;;;49.85;32.03;;;28.90;99.90;;;;;;5055857;28;20518;-65
2022/09/20 12:00:42;;;;;;;49.17;33.80;;;28.80;99.90;;;;;;5072624;28;20039;-65
2022/09/20 12:03:28;;;;;;;55.20;31.90;;;28.80;99.90;;;;;;5072281;28;20021;-65
2022/09/20 12:06:00;;;;;;;49.17;30.88;;;28.80;99.90;;;;;;5067899;28;20044;-63
2022/09/20 12:08:32;;;;;;;47.03;33.05;;;28.70;99.90;;;;;;5070658;28;20117;-63
2022/09/20 12:11:21;;;;;;;55.35;33.20;;;28.70;99.90;;;;;;5072951;28;20029;-63
2022/09/20 12:14:03;;;;;;;46.15;31.35;;;28.60;99.90;;;;;;5046739;28;20491;-64
2022/09/20 12:16:46;;;;;;;49.85;32.97;;;28.60;99.90;;;;;;5071677;28;20215;-64
2022/09/20 12:19:33;;;;;;;44.35;29.25;;;28.70;99.90;;;;;;5072274;28;20060;-63
2022/09/20 12:21:59;;;;;;;42.65;28.58;;;28.60;99.90;;;;;;5070363;28;20496;-63
2022/09/20 12:24:31;;;;;;;38.97;27.40;;;28.50;99.90;;;;;;5072590;28;20540;-63
2022/09/20 12:27:00;;;;;;;33.80;25.90;;;28.60;99.90;;;;;;5070972;28;20032;-64
2022/09/20 12:29:30;;;;;;;41.90;27.27;;;28.60;99.90;;;;;;5073410;28;20074;-63
2022/09/20 12:32:01;;;;;;;39.40;26.67;;;28.60;99.90;;;;;;5070534;28;20104;-63
2022/09/20 12:34:38;;;;;;;43.05;25.85;;;28.50;99.90;;;;;;5073514;28;20490;-64
2022/09/20 12:37:06;;;;;;;40.60;26.52;;;28.50;99.90;;;;;;5071602;28;20024;-64
2022/09/20 12:39:38;;;;;;;38.45;27.23;;;28.50;99.90;;;;;;5073386;28;20082;-64
2022/09/20 12:42:22;;;;;;;43.10;29.15;;;28.50;99.90;;;;;;5073279;28;20546;-64
2022/09/20 12:44:49;;;;;;;52.75;29.17;;;28.50;99.90;;;;;;5073214;28;20035;-64
2022/09/20 12:47:21;;;;;;;42.70;28.40;;;28.40;99.90;;;;;;5070910;28;20025;-64
2022/09/20 12:55:00;;;;;;;35.55;25.33;;;28.30;99.90;;;;;;5070398;28;20483;-64
2022/09/20 12:57:31;;;;;;;49.13;26.17;;;28.30;99.90;;;;;;5072930;28;20285;-64
2022/09/20 13:00:00;;;;;;;37.33;24.52;;;28.30;99.90;;;;;;5070481;28;20040;-65
2022/09/20 13:02:32;;;;;;;48.97;25.15;;;28.20;99.90;;;;;;5073126;28;20021;-64
2022/09/20 13:04:58;;;;;;;47.60;25.50;;;28.20;99.90;;;;;;5070658;28;20028;-63
2022/09/20 13:07:32;;;;;;;40.90;25.30;;;28.20;99.90;;;;;;5072980;28;20486;-64
2022/09/20 13:10:05;;;;;;;41.28;26.85;;;28.20;99.90;;;;;;5069766;28;20025;-64